createdAt,value
2022-12-04T00:03:17.437Z,42.50
2022-12-04T00:09:20.548Z,39.25
2022-12-04T00:15:25.526Z,33.25
2022-12-04T00:21:28.938Z,42.50
2022-12-04T00:27:31.099Z,36.25
2022-12-04T00:33:33.969Z,27.75
2022-12-04T00:39:35.870Z,35.50
2022-12-04T00:45:38.929Z,24.00
2022-12-04T00:51:40.998Z,28.25
2022-12-04T00:57:43.197Z,32.25
2022-12-04T01:03:46.868Z,26.50
2022-12-04T01:09:50.324Z,28.50
2022-12-04T01:15:53.053Z,26.75
2022-12-04T01:21:56.329Z,23.75
2022-12-04T01:27:59.009Z,24.25
2022-12-04T01:34:00.947Z,27.25
2022-12-04T01:40:04.985Z,30.25
2022-12-04T01:46:08.213Z,26.25
2022-12-04T01:52:15.998Z,29.50
2022-12-04T01:58:26.987Z,21.75
2022-12-04T02:04:31.386Z,24.00
2022-12-04T02:10:44.926Z,14.75
2022-12-04T02:16:55.368Z,19.25
2022-12-04T02:23:19.207Z,17.25
2022-12-04T02:29:46.693Z,16.00
2022-12-04T02:35:58.524Z,17.50
2022-12-04T02:42:13.008Z,14.50
2022-12-04T02:48:20.395Z,14.50
2022-12-04T02:54:30.413Z,25.25
2022-12-04T03:00:34.741Z,10.50
2022-12-04T03:06:40.352Z,21.75
2022-12-04T03:12:52.118Z,18.75
2022-12-04T03:18:59.267Z,23.75
2022-12-04T03:25:04.902Z,18.25
2022-12-04T03:31:10.066Z,17.25
2022-12-04T03:37:25.962Z,21.75
2022-12-04T03:43:51.625Z,18.75
2022-12-04T03:50:13.297Z,20.75
2022-12-04T03:56:26.545Z,17.25
2022-12-04T04:02:33.319Z,13.75
2022-12-04T04:08:40.016Z,17.75
2022-12-04T04:15:12.037Z,21.25
2022-12-04T04:21:36.898Z,21.00
2022-12-04T04:27:39.589Z,18.00
2022-12-04T04:34:09.153Z,19.50
2022-12-04T04:40:27.673Z,20.25
2022-12-04T04:46:39.110Z,18.75
2022-12-04T04:52:48.827Z,17.25
2022-12-04T04:58:52.118Z,23.50
2022-12-04T05:04:55.904Z,26.00
2022-12-04T05:10:58.662Z,22.50
2022-12-04T05:17:10.906Z,17.25
2022-12-04T05:23:14.420Z,22.00
2022-12-04T05:29:17.664Z,20.50
2022-12-04T05:35:21.510Z,15.75
2022-12-04T05:41:25.317Z,17.50
2022-12-04T05:47:29.981Z,28.50
2022-12-04T05:53:32.353Z,27.50
2022-12-04T05:59:34.650Z,23.50
2022-12-04T06:05:37.665Z,28.50
2022-12-04T06:11:41.338Z,26.00
2022-12-04T06:17:43.490Z,27.50
2022-12-04T06:23:45.513Z,22.75
2022-12-04T06:29:49.121Z,21.75
2022-12-04T06:35:59.242Z,22.50
2022-12-04T06:42:02.216Z,32.50
2022-12-04T06:48:04.810Z,26.25
2022-12-04T06:54:10.178Z,28.00
2022-12-04T07:00:27.475Z,36.25
2022-12-04T07:06:33.144Z,28.75
2022-12-04T07:12:37.082Z,29.00
2022-12-04T07:18:41.001Z,22.00
2022-12-04T07:24:43.980Z,18.25
2022-12-04T07:30:46.017Z,30.00
2022-12-04T07:36:48.465Z,30.00
2022-12-04T07:42:54.774Z,26.50
2022-12-04T07:48:58.092Z,27.50
2022-12-04T07:55:01.326Z,28.00
2022-12-04T08:01:23.639Z,29.67
2022-12-04T08:07:26.909Z,28.50
2022-12-04T08:13:28.807Z,28.25
2022-12-04T08:19:33.229Z,27.75
2022-12-04T08:25:41.691Z,31.25
2022-12-04T08:31:43.693Z,26.25
2022-12-04T08:37:46.353Z,30.25
2022-12-04T08:43:48.870Z,22.50
2022-12-04T08:49:50.812Z,24.00
2022-12-04T08:55:54.305Z,22.50
2022-12-04T09:01:56.758Z,23.50
2022-12-04T09:08:00.431Z,31.00
